PWSweather.com
Personal Weather Stations
Station Observations
MENWDWX1
Menstrie, ScotlandGB

MenstrieScotlandGB

Lat: 56.148322, Lon: -3.85483

Elevation: 62

Station Type: Davis Vantage Pro 2

High Low Average
Temperature 64.7°F18.2°C 43.7°F6.5°C 54.6°F12.6°C
Dew Point 49.9°F9.9°C 37.3°F2.9°C 44.8°F7.1°C
Winds 10.4 mph 16.7 kmh Calm Calm 3.0 mph S4.8 kmh S
Wind Gusts 17.3 mph27.8 kmh -- 6.0 mph9.7 kmh
Humidity 79% 53% 70%
Pressure 29.87 in1011.5 mb 29.81 in1009.5 mb -
Precipitation 0.00 in0.0 mm - -
Hour Temp Dew Point Humidity Winds Wind Gusts Pressure Precip Precip Rate Daily Precip Total
12:00 AM 48.7°F9.3°C 41.8°F5.4°C 77% 2.3 mph NE3.7 kmh NE 1.2 mph1.9 kmh 29.81 in1009.5 mb - 0.00 in0.0 mm 0.00 in0.0 mm
12:05 AM 48.7°F9.3°C 41.8°F5.4°C 77% 3.5 mph NE5.6 kmh NE 4.6 mph7.4 kmh 29.81 in1009.5 mb - 0.00 in0.0 mm 0.00 in0.0 mm
12:10 AM 48.7°F9.3°C 41.8°F5.4°C 77% 1.2 mph NE1.9 kmh NE 2.3 mph3.7 kmh 29.81 in1009.5 mb - 0.00 in0.0 mm 0.00 in0.0 mm
12:15 AM 48.7°F9.3°C 41.8°F5.4°C 77% 1.2 mph NE1.9 kmh NE 3.5 mph5.6 kmh 29.82 in1009.8 mb - 0.00 in0.0 mm 0.00 in0.0 mm
12:20 AM 48.8°F9.3°C 41.9°F5.5°C 77% 2.3 mph NE3.7 kmh NE 3.5 mph5.6 kmh 29.81 in1009.5 mb - 0.00 in0.0 mm 0.00 in0.0 mm
12:25 AM 48.8°F9.3°C 41.9°F5.5°C 77% Calm Calm -- 29.81 in1009.5 mb - 0.00 in0.0 mm 0.00 in0.0 mm
12:30 AM 48.7°F9.3°C 41.8°F5.4°C 77% Calm Calm 1.2 mph1.9 kmh 29.82 in1009.8 mb - 0.00 in0.0 mm 0.00 in0.0 mm
12:35 AM 48.6°F9.2°C 41.7°F5.4°C 77% 1.2 mph NW1.9 kmh NW 2.3 mph3.7 kmh 29.81 in1009.5 mb - 0.00 in0.0 mm 0.00 in0.0 mm
12:40 AM 48.4°F9.1°C 41.5°F5.3°C 77% 3.5 mph ENE5.6 kmh ENE 3.5 mph5.6 kmh 29.82 in1009.8 mb - 0.00 in0.0 mm 0.00 in0.0 mm
12:45 AM 48.1°F8.9°C 41.3°F5.2°C 77% 2.3 mph ENE3.7 kmh ENE 3.5 mph5.6 kmh 29.82 in1009.8 mb - 0.00 in0.0 mm 0.00 in0.0 mm
12:50 AM 47.8°F8.8°C 40.9°F4.9°C 77% 3.5 mph ENE5.6 kmh ENE 3.5 mph5.6 kmh 29.82 in1009.8 mb - 0.00 in0.0 mm 0.00 in0.0 mm
12:55 AM 47.5°F8.6°C 41.0°F5.0°C 78% 2.3 mph ENE3.7 kmh ENE 3.5 mph5.6 kmh 29.82 in1009.8 mb - 0.00 in0.0 mm 0.00 in0.0 mm
01:00 AM 47.3°F8.5°C 40.5°F4.7°C 77% 2.3 mph NE3.7 kmh NE 3.5 mph5.6 kmh 29.82 in1009.8 mb - 0.00 in0.0 mm 0.00 in0.0 mm
01:05 AM 47.0°F8.3°C 40.2°F4.6°C 77% 1.2 mph NE1.9 kmh NE 2.3 mph3.7 kmh 29.82 in1009.8 mb - 0.00 in0.0 mm 0.00 in0.0 mm
01:10 AM 46.8°F8.2°C 40.0°F4.4°C 77% 1.2 mph NE1.9 kmh NE 3.5 mph5.6 kmh 29.82 in1009.8 mb - 0.00 in0.0 mm 0.00 in0.0 mm
01:15 AM 46.7°F8.2°C 39.9°F4.4°C 77% 1.2 mph NE1.9 kmh NE 3.5 mph5.6 kmh 29.81 in1009.5 mb - 0.00 in0.0 mm 0.00 in0.0 mm
01:20 AM 46.7°F8.2°C 39.9°F4.4°C 77% 2.3 mph NE3.7 kmh NE 3.5 mph5.6 kmh 29.81 in1009.5 mb - 0.00 in0.0 mm 0.00 in0.0 mm
01:25 AM 46.8°F8.2°C 40.0°F4.4°C 77% 2.3 mph NE3.7 kmh NE 3.5 mph5.6 kmh 29.82 in1009.8 mb - 0.00 in0.0 mm 0.00 in0.0 mm
01:30 AM 46.8°F8.2°C 40.0°F4.4°C 77% 2.3 mph NE3.7 kmh NE 3.5 mph5.6 kmh 29.82 in1009.8 mb - 0.00 in0.0 mm 0.00 in0.0 mm
01:35 AM 46.7°F8.2°C 39.8°F4.3°C 77% 2.3 mph NE3.7 kmh NE 3.5 mph5.6 kmh 29.82 in1009.8 mb - 0.00 in0.0 mm 0.00 in0.0 mm
01:40 AM 46.4°F8.0°C 39.5°F4.2°C 77% 2.3 mph ENE3.7 kmh ENE 3.5 mph5.6 kmh 29.82 in1009.8 mb - 0.00 in0.0 mm 0.00 in0.0 mm
01:45 AM 46.1°F7.8°C 39.3°F4.1°C 77% 3.5 mph ENE5.6 kmh ENE 3.5 mph5.6 kmh 29.82 in1009.8 mb - 0.00 in0.0 mm 0.00 in0.0 mm
01:50 AM 45.8°F7.7°C 39.0°F3.9°C 77% 3.5 mph ENE5.6 kmh ENE 3.5 mph5.6 kmh 29.82 in1009.8 mb - 0.00 in0.0 mm 0.00 in0.0 mm
01:55 AM 45.6°F7.6°C 38.8°F3.8°C 77% 2.3 mph ENE3.7 kmh ENE 4.6 mph7.4 kmh 29.82 in1009.8 mb - 0.00 in0.0 mm 0.00 in0.0 mm
02:00 AM 45.3°F7.4°C 38.6°F3.7°C 77% 2.3 mph ENE3.7 kmh ENE 3.5 mph5.6 kmh 29.82 in1009.8 mb - 0.00 in0.0 mm 0.00 in0.0 mm
02:05 AM 45.2°F7.3°C 38.4°F3.6°C 77% 3.5 mph ENE5.6 kmh ENE 3.5 mph5.6 kmh 29.82 in1009.8 mb - 0.00 in0.0 mm 0.00 in0.0 mm
02:10 AM 45.3°F7.4°C 38.5°F3.6°C 77% 3.5 mph E5.6 kmh E 3.5 mph5.6 kmh 29.82 in1009.8 mb - 0.00 in0.0 mm 0.00 in0.0 mm
02:15 AM 45.2°F7.3°C 38.4°F3.6°C 77% 2.3 mph ENE3.7 kmh ENE 3.5 mph5.6 kmh 29.82 in1009.8 mb - 0.00 in0.0 mm 0.00 in0.0 mm
02:20 AM 45.0°F7.2°C 38.2°F3.4°C 77% 1.2 mph ENE1.9 kmh ENE 3.5 mph5.6 kmh 29.82 in1009.8 mb - 0.00 in0.0 mm 0.00 in0.0 mm
02:25 AM 44.9°F7.2°C 38.1°F3.4°C 77% 3.5 mph E5.6 kmh E 3.5 mph5.6 kmh 29.82 in1009.8 mb - 0.00 in0.0 mm 0.00 in0.0 mm
02:30 AM 44.9°F7.2°C 38.1°F3.4°C 77% 3.5 mph E5.6 kmh E 3.5 mph5.6 kmh 29.82 in1009.8 mb - 0.00 in0.0 mm 0.00 in0.0 mm
02:35 AM 44.7°F7.1°C 38.0°F3.3°C 77% 3.5 mph E5.6 kmh E 3.5 mph5.6 kmh 29.82 in1009.8 mb - 0.00 in0.0 mm 0.00 in0.0 mm
02:40 AM 44.5°F6.9°C 37.7°F3.2°C 77% 2.3 mph E3.7 kmh E 3.5 mph5.6 kmh 29.82 in1009.8 mb - 0.00 in0.0 mm 0.00 in0.0 mm
02:45 AM 44.4°F6.9°C 37.6°F3.1°C 77% 3.5 mph E5.6 kmh E 3.5 mph5.6 kmh 29.82 in1009.8 mb - 0.00 in0.0 mm 0.00 in0.0 mm
02:50 AM 44.4°F6.9°C 37.6°F3.1°C 77% 2.3 mph NE3.7 kmh NE 4.6 mph7.4 kmh 29.82 in1009.8 mb - 0.00 in0.0 mm 0.00 in0.0 mm
02:55 AM 44.5°F6.9°C 38.0°F3.3°C 78% 2.3 mph ENE3.7 kmh ENE 3.5 mph5.6 kmh 29.82 in1009.8 mb - 0.00 in0.0 mm 0.00 in0.0 mm
03:00 AM 45.0°F7.2°C 38.5°F3.6°C 78% 3.5 mph E5.6 kmh E 3.5 mph5.6 kmh 29.82 in1009.8 mb - 0.00 in0.0 mm 0.00 in0.0 mm
03:05 AM 45.0°F7.2°C 38.6°F3.7°C 78% 2.3 mph E3.7 kmh E 3.5 mph5.6 kmh 29.82 in1009.8 mb - 0.00 in0.0 mm 0.00 in0.0 mm
03:10 AM 45.0°F7.2°C 38.2°F3.4°C 77% 1.2 mph E1.9 kmh E 2.3 mph3.7 kmh 29.82 in1009.8 mb - 0.00 in0.0 mm 0.00 in0.0 mm
03:15 AM 44.8°F7.1°C 38.1°F3.4°C 77% 2.3 mph E3.7 kmh E 5.8 mph9.3 kmh 29.83 in1010.2 mb - 0.00 in0.0 mm 0.00 in0.0 mm
03:20 AM 44.7°F7.1°C 38.3°F3.5°C 78% 3.5 mph E5.6 kmh E 5.8 mph9.3 kmh 29.82 in1009.8 mb - 0.00 in0.0 mm 0.00 in0.0 mm
03:25 AM 44.4°F6.9°C 38.0°F3.3°C 78% 2.3 mph NE3.7 kmh NE 3.5 mph5.6 kmh 29.83 in1010.2 mb - 0.00 in0.0 mm 0.00 in0.0 mm
03:30 AM 44.4°F6.9°C 38.0°F3.3°C 78% 1.2 mph NE1.9 kmh NE 3.5 mph5.6 kmh 29.83 in1010.2 mb - 0.00 in0.0 mm 0.00 in0.0 mm
03:35 AM 44.2°F6.8°C 37.4°F3.0°C 77% 2.3 mph NE3.7 kmh NE 4.6 mph7.4 kmh 29.82 in1009.8 mb - 0.00 in0.0 mm 0.00 in0.0 mm
03:40 AM 44.0°F6.7°C 37.3°F2.9°C 77% 2.3 mph NE3.7 kmh NE 3.5 mph5.6 kmh 29.82 in1009.8 mb - 0.00 in0.0 mm 0.00 in0.0 mm
03:45 AM 44.0°F6.7°C 37.6°F3.1°C 78% 2.3 mph NE3.7 kmh NE 3.5 mph5.6 kmh 29.82 in1009.8 mb - 0.00 in0.0 mm 0.00 in0.0 mm
03:50 AM 44.0°F6.7°C 37.6°F3.1°C 78% 3.5 mph ENE5.6 kmh ENE 3.5 mph5.6 kmh 29.82 in1009.8 mb - 0.00 in0.0 mm 0.00 in0.0 mm
03:55 AM 44.2°F6.8°C 37.8°F3.2°C 78% 2.3 mph ENE3.7 kmh ENE 2.3 mph3.7 kmh 29.82 in1009.8 mb - 0.00 in0.0 mm 0.00 in0.0 mm
04:00 AM 44.2°F6.8°C 37.8°F3.2°C 78% 1.2 mph ENE1.9 kmh ENE 3.5 mph5.6 kmh 29.82 in1009.8 mb - 0.00 in0.0 mm 0.00 in0.0 mm
04:05 AM 44.1°F6.7°C 37.7°F3.2°C 78% Calm Calm -- 29.82 in1009.8 mb - 0.00 in0.0 mm 0.00 in0.0 mm
04:10 AM 44.1°F6.7°C 37.7°F3.2°C 78% 2.3 mph ENE3.7 kmh ENE 3.5 mph5.6 kmh 29.82 in1009.8 mb - 0.00 in0.0 mm 0.00 in0.0 mm
04:15 AM 44.0°F6.7°C 37.6°F3.1°C 78% 1.2 mph ENE1.9 kmh ENE 3.5 mph5.6 kmh 29.82 in1009.8 mb - 0.00 in0.0 mm 0.00 in0.0 mm
04:20 AM 44.0°F6.7°C 37.6°F3.1°C 78% 2.3 mph ENE3.7 kmh ENE 3.5 mph5.6 kmh 29.83 in1010.2 mb - 0.00 in0.0 mm 0.00 in0.0 mm
04:25 AM 43.9°F6.6°C 37.5°F3.1°C 78% 3.5 mph E5.6 kmh E 3.5 mph5.6 kmh 29.83 in1010.2 mb - 0.00 in0.0 mm 0.00 in0.0 mm
04:30 AM 43.8°F6.6°C 37.4°F3.0°C 78% 1.2 mph ENE1.9 kmh ENE 3.5 mph5.6 kmh 29.83 in1010.2 mb - 0.00 in0.0 mm 0.00 in0.0 mm
04:35 AM 43.7°F6.5°C 37.3°F2.9°C 78% 1.2 mph ENE1.9 kmh ENE 2.3 mph3.7 kmh 29.83 in1010.2 mb - 0.00 in0.0 mm 0.00 in0.0 mm
04:40 AM 43.7°F6.5°C 37.3°F2.9°C 78% 2.3 mph ENE3.7 kmh ENE 3.5 mph5.6 kmh 29.82 in1009.8 mb - 0.00 in0.0 mm 0.00 in0.0 mm
04:45 AM 43.7°F6.5°C 37.3°F2.9°C 78% 2.3 mph ENE3.7 kmh ENE 3.5 mph5.6 kmh 29.82 in1009.8 mb - 0.00 in0.0 mm 0.00 in0.0 mm
04:50 AM 43.8°F6.6°C 37.4°F3.0°C 78% 2.3 mph ENE3.7 kmh ENE 3.5 mph5.6 kmh 29.83 in1010.2 mb - 0.00 in0.0 mm 0.00 in0.0 mm
04:55 AM 43.9°F6.6°C 37.5°F3.1°C 78% 3.5 mph ENE5.6 kmh ENE 3.5 mph5.6 kmh 29.83 in1010.2 mb - 0.00 in0.0 mm 0.00 in0.0 mm
05:00 AM 43.9°F6.6°C 37.5°F3.1°C 78% 2.3 mph ENE3.7 kmh ENE 3.5 mph5.6 kmh 29.83 in1010.2 mb - 0.00 in0.0 mm 0.00 in0.0 mm
05:05 AM 43.9°F6.6°C 37.5°F3.1°C 78% 2.3 mph ENE3.7 kmh ENE 3.5 mph5.6 kmh 29.83 in1010.2 mb - 0.00 in0.0 mm 0.00 in0.0 mm
05:10 AM 43.8°F6.6°C 37.4°F3.0°C 78% 2.3 mph ENE3.7 kmh ENE 3.5 mph5.6 kmh 29.84 in1010.5 mb - 0.00 in0.0 mm 0.00 in0.0 mm
05:15 AM 43.9°F6.6°C 37.5°F3.1°C 78% 2.3 mph ENE3.7 kmh ENE 2.3 mph3.7 kmh 29.83 in1010.2 mb - 0.00 in0.0 mm 0.00 in0.0 mm
05:20 AM 43.9°F6.6°C 37.5°F3.1°C 78% 1.2 mph ENE1.9 kmh ENE 2.3 mph3.7 kmh 29.83 in1010.2 mb - 0.00 in0.0 mm 0.00 in0.0 mm
05:25 AM 44.0°F6.7°C 37.6°F3.1°C 78% 2.3 mph ENE3.7 kmh ENE 3.5 mph5.6 kmh 29.84 in1010.5 mb - 0.00 in0.0 mm 0.00 in0.0 mm
05:30 AM 44.1°F6.7°C 37.7°F3.2°C 78% 3.5 mph ENE5.6 kmh ENE 3.5 mph5.6 kmh 29.84 in1010.5 mb - 0.00 in0.0 mm 0.00 in0.0 mm
05:35 AM 44.2°F6.8°C 37.8°F3.2°C 78% 2.3 mph ENE3.7 kmh ENE 3.5 mph5.6 kmh 29.84 in1010.5 mb - 0.00 in0.0 mm 0.00 in0.0 mm
05:40 AM 44.2°F6.8°C 37.8°F3.2°C 78% 2.3 mph E3.7 kmh E 3.5 mph5.6 kmh 29.84 in1010.5 mb - 0.00 in0.0 mm 0.00 in0.0 mm
05:45 AM 44.1°F6.7°C 37.7°F3.2°C 78% 2.3 mph NE3.7 kmh NE 3.5 mph5.6 kmh 29.84 in1010.5 mb - 0.00 in0.0 mm 0.00 in0.0 mm
05:50 AM 44.0°F6.7°C 37.6°F3.1°C 78% 1.2 mph NE1.9 kmh NE 2.3 mph3.7 kmh 29.84 in1010.5 mb - 0.00 in0.0 mm 0.00 in0.0 mm
05:55 AM 44.0°F6.7°C 37.6°F3.1°C 78% 2.3 mph NE3.7 kmh NE 3.5 mph5.6 kmh 29.84 in1010.5 mb - 0.00 in0.0 mm 0.00 in0.0 mm
06:00 AM 44.1°F6.7°C 37.7°F3.2°C 78% 1.2 mph NE1.9 kmh NE 2.3 mph3.7 kmh 29.84 in1010.5 mb - 0.00 in0.0 mm 0.00 in0.0 mm
06:05 AM 44.1°F6.7°C 37.7°F3.2°C 78% 1.2 mph NE1.9 kmh NE 1.2 mph1.9 kmh 29.84 in1010.5 mb - 0.00 in0.0 mm 0.00 in0.0 mm
06:10 AM 44.2°F6.8°C 38.1°F3.4°C 79% Calm Calm -- 29.84 in1010.5 mb - 0.00 in0.0 mm 0.00 in0.0 mm
06:15 AM 44.5°F6.9°C 38.4°F3.6°C 79% Calm Calm -- 29.84 in1010.5 mb - 0.00 in0.0 mm 0.00 in0.0 mm
06:20 AM 44.8°F7.1°C 38.4°F3.6°C 78% 1.2 mph E1.9 kmh E 2.3 mph3.7 kmh 29.84 in1010.5 mb - 0.00 in0.0 mm 0.00 in0.0 mm
06:25 AM 45.2°F7.3°C 38.7°F3.7°C 78% 2.3 mph E3.7 kmh E 3.5 mph5.6 kmh 29.85 in1010.8 mb - 0.00 in0.0 mm 0.00 in0.0 mm
06:30 AM 45.6°F7.6°C 39.1°F3.9°C 78% 2.3 mph ENE3.7 kmh ENE 3.5 mph5.6 kmh 29.85 in1010.8 mb - 0.00 in0.0 mm 0.00 in0.0 mm
06:35 AM 46.1°F7.8°C 39.9°F4.4°C 79% 2.3 mph ENE3.7 kmh ENE 3.5 mph5.6 kmh 29.85 in1010.8 mb - 0.00 in0.0 mm 0.00 in0.0 mm
06:40 AM 46.6°F8.1°C 40.4°F4.7°C 79% 2.3 mph ENE3.7 kmh ENE 3.5 mph5.6 kmh 29.85 in1010.8 mb - 0.00 in0.0 mm 0.00 in0.0 mm
06:45 AM 47.2°F8.4°C 40.7°F4.8°C 78% 2.3 mph ENE3.7 kmh ENE 3.5 mph5.6 kmh 29.85 in1010.8 mb - 0.00 in0.0 mm 0.00 in0.0 mm
06:50 AM 47.8°F8.8°C 41.3°F5.2°C 78% 3.5 mph E5.6 kmh E 3.5 mph5.6 kmh 29.85 in1010.8 mb - 0.00 in0.0 mm 0.00 in0.0 mm
06:55 AM 48.4°F9.1°C 41.9°F5.5°C 78% 3.5 mph E5.6 kmh E 3.5 mph5.6 kmh 29.85 in1010.8 mb - 0.00 in0.0 mm 0.00 in0.0 mm
07:00 AM 49.1°F9.5°C 42.5°F5.8°C 78% 2.3 mph E3.7 kmh E 3.5 mph5.6 kmh 29.85 in1010.8 mb - 0.00 in0.0 mm 0.00 in0.0 mm
07:05 AM 50.0°F10.0°C 43.4°F6.3°C 78% 3.5 mph N5.6 kmh N 3.5 mph5.6 kmh 29.85 in1010.8 mb - 0.00 in0.0 mm 0.00 in0.0 mm
07:10 AM 50.8°F10.4°C 44.2°F6.8°C 78% 2.3 mph ESE3.7 kmh ESE 5.8 mph9.3 kmh 29.85 in1010.8 mb - 0.00 in0.0 mm 0.00 in0.0 mm
07:15 AM 51.4°F10.8°C 44.4°F6.9°C 77% Calm Calm 1.2 mph1.9 kmh 29.85 in1010.8 mb - 0.00 in0.0 mm 0.00 in0.0 mm
07:20 AM 51.7°F10.9°C 44.7°F7.1°C 77% Calm Calm 1.2 mph1.9 kmh 29.85 in1010.8 mb - 0.00 in0.0 mm 0.00 in0.0 mm
07:25 AM 52.0°F11.1°C 45.0°F7.2°C 77% Calm Calm 2.3 mph3.7 kmh 29.85 in1010.8 mb - 0.00 in0.0 mm 0.00 in0.0 mm
07:30 AM 52.2°F11.2°C 45.2°F7.3°C 77% 2.3 mph SE3.7 kmh SE 3.5 mph5.6 kmh 29.85 in1010.8 mb - 0.00 in0.0 mm 0.00 in0.0 mm
07:35 AM 52.6°F11.4°C 45.6°F7.6°C 77% 2.3 mph E3.7 kmh E 3.5 mph5.6 kmh 29.85 in1010.8 mb - 0.00 in0.0 mm 0.00 in0.0 mm
07:40 AM 53.1°F11.7°C 46.1°F7.8°C 77% 3.5 mph NE5.6 kmh NE 3.5 mph5.6 kmh 29.85 in1010.8 mb - 0.00 in0.0 mm 0.00 in0.0 mm
07:45 AM 53.4°F11.9°C 46.4°F8.0°C 77% 1.2 mph SSW1.9 kmh SSW 3.5 mph5.6 kmh 29.85 in1010.8 mb - 0.00 in0.0 mm 0.00 in0.0 mm
07:50 AM 53.8°F12.1°C 46.7°F8.2°C 77% 2.3 mph S3.7 kmh S 3.5 mph5.6 kmh 29.85 in1010.8 mb - 0.00 in0.0 mm 0.00 in0.0 mm
07:55 AM 54.2°F12.3°C 47.1°F8.4°C 77% 2.3 mph S3.7 kmh S 5.8 mph9.3 kmh 29.85 in1010.8 mb - 0.00 in0.0 mm 0.00 in0.0 mm
08:00 AM 54.5°F12.5°C 47.1°F8.4°C 76% 3.5 mph S5.6 kmh S 5.8 mph9.3 kmh 29.85 in1010.8 mb - 0.00 in0.0 mm 0.00 in0.0 mm
08:05 AM 54.9°F12.7°C 47.5°F8.6°C 76% 4.6 mph WSW7.4 kmh WSW 8.1 mph13.0 kmh 29.85 in1010.8 mb - 0.00 in0.0 mm 0.00 in0.0 mm
08:10 AM 55.3°F12.9°C 47.9°F8.8°C 76% 3.5 mph SSW5.6 kmh SSW 4.6 mph7.4 kmh 29.85 in1010.8 mb - 0.00 in0.0 mm 0.00 in0.0 mm
08:15 AM 55.6°F13.1°C 47.8°F8.8°C 75% 3.5 mph SW5.6 kmh SW 5.8 mph9.3 kmh 29.85 in1010.8 mb - 0.00 in0.0 mm 0.00 in0.0 mm
08:20 AM 55.8°F13.2°C 48.0°F8.9°C 75% 1.2 mph S1.9 kmh S 3.5 mph5.6 kmh 29.85 in1010.8 mb - 0.00 in0.0 mm 0.00 in0.0 mm
08:25 AM 55.9°F13.3°C 48.1°F8.9°C 75% 3.5 mph SW5.6 kmh SW 3.5 mph5.6 kmh 29.85 in1010.8 mb - 0.00 in0.0 mm 0.00 in0.0 mm
08:30 AM 56.8°F13.8°C 49.0°F9.4°C 75% 2.3 mph WSW3.7 kmh WSW 3.5 mph5.6 kmh 29.85 in1010.8 mb - 0.00 in0.0 mm 0.00 in0.0 mm
08:35 AM 57.5°F14.2°C 48.5°F9.2°C 72% 3.5 mph SW5.6 kmh SW 6.9 mph11.1 kmh 29.85 in1010.8 mb - 0.00 in0.0 mm 0.00 in0.0 mm
08:40 AM 57.7°F14.3°C 49.1°F9.5°C 73% 2.3 mph SSW3.7 kmh SSW 4.6 mph7.4 kmh 29.85 in1010.8 mb - 0.00 in0.0 mm 0.00 in0.0 mm
08:45 AM 57.6°F14.2°C 48.6°F9.2°C 72% 5.8 mph SW9.3 kmh SW 10.4 mph16.7 kmh 29.84 in1010.5 mb - 0.00 in0.0 mm 0.00 in0.0 mm
08:50 AM 57.2°F14.0°C 48.3°F9.1°C 72% 4.6 mph SW7.4 kmh SW 8.1 mph13.0 kmh 29.84 in1010.5 mb - 0.00 in0.0 mm 0.00 in0.0 mm
08:55 AM 57.3°F14.1°C 48.7°F9.3°C 73% 5.8 mph SSW9.3 kmh SSW 10.4 mph16.7 kmh 29.84 in1010.5 mb - 0.00 in0.0 mm 0.00 in0.0 mm
09:00 AM 58.0°F14.4°C 49.0°F9.4°C 72% 5.8 mph SSW9.3 kmh SSW 11.5 mph18.5 kmh 29.84 in1010.5 mb - 0.00 in0.0 mm 0.00 in0.0 mm
09:05 AM 58.3°F14.6°C 48.6°F9.2°C 70% 6.9 mph SW11.1 kmh SW 9.2 mph14.8 kmh 29.84 in1010.5 mb - 0.00 in0.0 mm 0.00 in0.0 mm
09:10 AM 57.7°F14.3°C 48.4°F9.1°C 71% 4.6 mph WSW7.4 kmh WSW 5.8 mph9.3 kmh 29.84 in1010.5 mb - 0.00 in0.0 mm 0.00 in0.0 mm
09:15 AM 57.5°F14.2°C 48.5°F9.2°C 72% 3.5 mph SW5.6 kmh SW 9.2 mph14.8 kmh 29.84 in1010.5 mb - 0.00 in0.0 mm 0.00 in0.0 mm
09:20 AM 57.3°F14.1°C 48.0°F8.9°C 71% 4.6 mph SW7.4 kmh SW 9.2 mph14.8 kmh 29.85 in1010.8 mb - 0.00 in0.0 mm 0.00 in0.0 mm
09:25 AM 57.3°F14.1°C 48.0°F8.9°C 71% 6.9 mph SSW11.1 kmh SSW 11.5 mph18.5 kmh 29.84 in1010.5 mb - 0.00 in0.0 mm 0.00 in0.0 mm
09:30 AM 57.4°F14.1°C 48.1°F8.9°C 71% 5.8 mph SW9.3 kmh SW 10.4 mph16.7 kmh 29.84 in1010.5 mb - 0.00 in0.0 mm 0.00 in0.0 mm
09:35 AM 57.3°F14.1°C 48.0°F8.9°C 71% 5.8 mph SW9.3 kmh SW 8.1 mph13.0 kmh 29.84 in1010.5 mb - 0.00 in0.0 mm 0.00 in0.0 mm
09:40 AM 57.3°F14.1°C 48.3°F9.1°C 72% 5.8 mph SW9.3 kmh SW 6.9 mph11.1 kmh 29.84 in1010.5 mb - 0.00 in0.0 mm 0.00 in0.0 mm
09:45 AM 57.4°F14.1°C 48.4°F9.1°C 72% 5.8 mph SW9.3 kmh SW 11.5 mph18.5 kmh 29.84 in1010.5 mb - 0.00 in0.0 mm 0.00 in0.0 mm
09:50 AM 58.0°F14.4°C 48.7°F9.3°C 71% 4.6 mph SW7.4 kmh SW 6.9 mph11.1 kmh 29.84 in1010.5 mb - 0.00 in0.0 mm 0.00 in0.0 mm
09:55 AM 58.4°F14.7°C 47.9°F8.8°C 68% 8.1 mph WSW13.0 kmh WSW 11.5 mph18.5 kmh 29.84 in1010.5 mb - 0.00 in0.0 mm 0.00 in0.0 mm
10:00 AM 58.3°F14.6°C 48.2°F9.0°C 69% 5.8 mph WSW9.3 kmh WSW 11.5 mph18.5 kmh 29.84 in1010.5 mb - 0.00 in0.0 mm 0.00 in0.0 mm
10:05 AM 58.4°F14.7°C 48.3°F9.1°C 69% 4.6 mph SW7.4 kmh SW 11.5 mph18.5 kmh 29.84 in1010.5 mb - 0.00 in0.0 mm 0.00 in0.0 mm
10:10 AM 58.8°F14.9°C 48.2°F9.0°C 68% 6.9 mph SW11.1 kmh SW 11.5 mph18.5 kmh 29.84 in1010.5 mb - 0.00 in0.0 mm 0.00 in0.0 mm
10:15 AM 58.8°F14.9°C 48.3°F9.1°C 68% 6.9 mph SSW11.1 kmh SSW 15.0 mph24.1 kmh 29.84 in1010.5 mb - 0.00 in0.0 mm 0.00 in0.0 mm
10:20 AM 58.9°F14.9°C 48.4°F9.1°C 68% 8.1 mph SW13.0 kmh SW 11.5 mph18.5 kmh 29.84 in1010.5 mb - 0.00 in0.0 mm 0.00 in0.0 mm
10:25 AM 59.3°F15.2°C 48.7°F9.3°C 68% 4.6 mph SW7.4 kmh SW 11.5 mph18.5 kmh 29.84 in1010.5 mb - 0.00 in0.0 mm 0.00 in0.0 mm
10:30 AM 59.6°F15.3°C 48.2°F9.0°C 66% 9.2 mph SW14.8 kmh SW 16.1 mph25.9 kmh 29.84 in1010.5 mb - 0.00 in0.0 mm 0.00 in0.0 mm
10:35 AM 58.9°F14.9°C 48.0°F8.9°C 67% 10.4 mph SW16.7 kmh SW 11.5 mph18.5 kmh 29.84 in1010.5 mb - 0.00 in0.0 mm 0.00 in0.0 mm
10:40 AM 58.9°F14.9°C 48.7°F9.3°C 69% 4.6 mph SW7.4 kmh SW 11.5 mph18.5 kmh 29.84 in1010.5 mb - 0.00 in0.0 mm 0.00 in0.0 mm
10:45 AM 59.5°F15.3°C 49.3°F9.6°C 69% 4.6 mph SW7.4 kmh SW 8.1 mph13.0 kmh 29.84 in1010.5 mb - 0.00 in0.0 mm 0.00 in0.0 mm
10:50 AM 59.7°F15.4°C 48.7°F9.3°C 67% 5.8 mph SW9.3 kmh SW 8.1 mph13.0 kmh 29.84 in1010.5 mb - 0.00 in0.0 mm 0.00 in0.0 mm
10:55 AM 59.8°F15.4°C 48.8°F9.3°C 67% 6.9 mph SW11.1 kmh SW 9.2 mph14.8 kmh 29.84 in1010.5 mb - 0.00 in0.0 mm 0.00 in0.0 mm
11:00 AM 60.1°F15.6°C 49.9°F9.9°C 69% 4.6 mph WSW7.4 kmh WSW 8.1 mph13.0 kmh 29.84 in1010.5 mb - 0.00 in0.0 mm 0.00 in0.0 mm
11:05 AM 61.0°F16.1°C 49.1°F9.5°C 65% 8.1 mph WSW13.0 kmh WSW 11.5 mph18.5 kmh 29.84 in1010.5 mb - 0.00 in0.0 mm 0.00 in0.0 mm
11:10 AM 61.5°F16.4°C 49.2°F9.6°C 64% 4.6 mph W7.4 kmh W 6.9 mph11.1 kmh 29.83 in1010.2 mb - 0.00 in0.0 mm 0.00 in0.0 mm
11:15 AM 62.4°F16.9°C 49.2°F9.6°C 62% 3.5 mph WSW5.6 kmh WSW 8.1 mph13.0 kmh 29.83 in1010.2 mb - 0.00 in0.0 mm 0.00 in0.0 mm
11:20 AM 62.4°F16.9°C 49.6°F9.8°C 63% 5.8 mph W9.3 kmh W 8.1 mph13.0 kmh 29.83 in1010.2 mb - 0.00 in0.0 mm 0.00 in0.0 mm
11:25 AM 62.7°F17.1°C 49.5°F9.7°C 62% 3.5 mph SW5.6 kmh SW 6.9 mph11.1 kmh 29.83 in1010.2 mb - 0.00 in0.0 mm 0.00 in0.0 mm
11:30 AM 62.9°F17.2°C 48.3°F9.1°C 59% 10.4 mph WSW16.7 kmh WSW 13.8 mph22.2 kmh 29.83 in1010.2 mb - 0.00 in0.0 mm 0.00 in0.0 mm
11:35 AM 62.6°F17.0°C 48.1°F8.9°C 59% 8.1 mph SW13.0 kmh SW 11.5 mph18.5 kmh 29.83 in1010.2 mb - 0.00 in0.0 mm 0.00 in0.0 mm
11:40 AM 62.3°F16.8°C 47.3°F8.5°C 58% 6.9 mph SW11.1 kmh SW 11.5 mph18.5 kmh 29.83 in1010.2 mb - 0.00 in0.0 mm 0.00 in0.0 mm
11:45 AM 62.0°F16.7°C 47.5°F8.6°C 59% 2.3 mph SW3.7 kmh SW 6.9 mph11.1 kmh 29.83 in1010.2 mb - 0.00 in0.0 mm 0.00 in0.0 mm
11:50 AM 62.9°F17.2°C 47.4°F8.6°C 57% 8.1 mph SW13.0 kmh SW 16.1 mph25.9 kmh 29.83 in1010.2 mb - 0.00 in0.0 mm 0.00 in0.0 mm
11:55 AM 62.6°F17.0°C 47.1°F8.4°C 57% 10.4 mph SW16.7 kmh SW 15.0 mph24.1 kmh 29.82 in1009.8 mb - 0.00 in0.0 mm 0.00 in0.0 mm
12:00 PM 62.9°F17.2°C 47.9°F8.8°C 58% 5.8 mph SW9.3 kmh SW 11.5 mph18.5 kmh 29.83 in1010.2 mb - 0.00 in0.0 mm 0.00 in0.0 mm
12:05 PM 63.9°F17.7°C 47.9°F8.8°C 56% 6.9 mph SW11.1 kmh SW 9.2 mph14.8 kmh 29.83 in1010.2 mb - 0.00 in0.0 mm 0.00 in0.0 mm
12:10 PM 64.0°F17.8°C 47.0°F8.3°C 54% 4.6 mph SSW7.4 kmh SSW 10.4 mph16.7 kmh 29.83 in1010.2 mb - 0.00 in0.0 mm 0.00 in0.0 mm
12:15 PM 63.5°F17.5°C 48.0°F8.9°C 57% 6.9 mph SW11.1 kmh SW 11.5 mph18.5 kmh 29.83 in1010.2 mb - 0.00 in0.0 mm 0.00 in0.0 mm
12:20 PM 64.0°F17.8°C 48.4°F9.1°C 57% 6.9 mph SW11.1 kmh SW 12.7 mph20.4 kmh 29.83 in1010.2 mb - 0.00 in0.0 mm 0.00 in0.0 mm
12:25 PM 64.6°F18.1°C 47.5°F8.6°C 54% 5.8 mph SW9.3 kmh SW 10.4 mph16.7 kmh 29.83 in1010.2 mb - 0.00 in0.0 mm 0.00 in0.0 mm
12:30 PM 64.7°F18.2°C 47.7°F8.7°C 54% 6.9 mph SW11.1 kmh SW 13.8 mph22.2 kmh 29.83 in1010.2 mb - 0.00 in0.0 mm 0.00 in0.0 mm
12:35 PM 64.5°F18.1°C 47.0°F8.3°C 53% 8.1 mph WSW13.0 kmh WSW 12.7 mph20.4 kmh 29.83 in1010.2 mb - 0.00 in0.0 mm 0.00 in0.0 mm
12:40 PM 64.0°F17.8°C 47.0°F8.3°C 54% 6.9 mph WSW11.1 kmh WSW 8.1 mph13.0 kmh 29.83 in1010.2 mb - 0.00 in0.0 mm 0.00 in0.0 mm
12:45 PM 63.6°F17.6°C 47.6°F8.7°C 56% 8.1 mph SW13.0 kmh SW 11.5 mph18.5 kmh 29.83 in1010.2 mb - 0.00 in0.0 mm 0.00 in0.0 mm
12:50 PM 63.6°F17.6°C 48.1°F8.9°C 57% 6.9 mph W11.1 kmh W 11.5 mph18.5 kmh 29.83 in1010.2 mb - 0.00 in0.0 mm 0.00 in0.0 mm
12:55 PM 63.4°F17.4°C 48.4°F9.1°C 58% 3.5 mph WSW5.6 kmh WSW 5.8 mph9.3 kmh 29.83 in1010.2 mb - 0.00 in0.0 mm 0.00 in0.0 mm
01:00 PM 63.2°F17.3°C 48.2°F9.0°C 58% 3.5 mph WSW5.6 kmh WSW 9.2 mph14.8 kmh 29.83 in1010.2 mb - 0.00 in0.0 mm 0.00 in0.0 mm
01:05 PM 63.0°F17.2°C 48.0°F8.9°C 58% 4.6 mph W7.4 kmh W 5.8 mph9.3 kmh 29.83 in1010.2 mb - 0.00 in0.0 mm 0.00 in0.0 mm
01:10 PM 62.9°F17.2°C 47.9°F8.8°C 58% 3.5 mph WSW5.6 kmh WSW 10.4 mph16.7 kmh 29.83 in1010.2 mb - 0.00 in0.0 mm 0.00 in0.0 mm
01:15 PM 62.9°F17.2°C 47.8°F8.8°C 58% 5.8 mph WSW9.3 kmh WSW 8.1 mph13.0 kmh 29.83 in1010.2 mb - 0.00 in0.0 mm 0.00 in0.0 mm
01:20 PM 62.7°F17.1°C 47.2°F8.4°C 57% 6.9 mph WSW11.1 kmh WSW 10.4 mph16.7 kmh 29.83 in1010.2 mb - 0.00 in0.0 mm 0.00 in0.0 mm
01:25 PM 63.4°F17.4°C 48.4°F9.1°C 58% 9.2 mph SW14.8 kmh SW 15.0 mph24.1 kmh 29.83 in1010.2 mb - 0.00 in0.0 mm 0.00 in0.0 mm
01:30 PM 64.2°F17.9°C 48.7°F9.3°C 57% 5.8 mph SW9.3 kmh SW 15.0 mph24.1 kmh 29.83 in1010.2 mb - 0.00 in0.0 mm 0.00 in0.0 mm
01:35 PM 64.6°F18.1°C 48.5°F9.2°C 56% 4.6 mph WSW7.4 kmh WSW 11.5 mph18.5 kmh 29.83 in1010.2 mb - 0.00 in0.0 mm 0.00 in0.0 mm
01:40 PM 64.5°F18.1°C 49.0°F9.4°C 57% 4.6 mph W7.4 kmh W 11.5 mph18.5 kmh 29.83 in1010.2 mb - 0.00 in0.0 mm 0.00 in0.0 mm
01:45 PM 64.0°F17.8°C 47.9°F8.8°C 56% 3.5 mph WSW5.6 kmh WSW 6.9 mph11.1 kmh 29.83 in1010.2 mb - 0.00 in0.0 mm 0.00 in0.0 mm
01:50 PM 63.4°F17.4°C 48.4°F9.1°C 58% 6.9 mph WSW11.1 kmh WSW 10.4 mph16.7 kmh 29.83 in1010.2 mb - 0.00 in0.0 mm 0.00 in0.0 mm
01:55 PM 63.1°F17.3°C 49.4°F9.7°C 61% 5.8 mph WSW9.3 kmh WSW 6.9 mph11.1 kmh 29.83 in1010.2 mb - 0.00 in0.0 mm 0.00 in0.0 mm
02:00 PM 62.8°F17.1°C 49.1°F9.5°C 61% 3.5 mph W5.6 kmh W 3.5 mph5.6 kmh 29.83 in1010.2 mb - 0.00 in0.0 mm 0.00 in0.0 mm
02:05 PM 62.9°F17.2°C 49.7°F9.8°C 62% 4.6 mph W7.4 kmh W 8.1 mph13.0 kmh 29.83 in1010.2 mb - 0.00 in0.0 mm 0.00 in0.0 mm
02:10 PM 63.6°F17.6°C 49.5°F9.7°C 60% 4.6 mph WSW7.4 kmh WSW 12.7 mph20.4 kmh 29.83 in1010.2 mb - 0.00 in0.0 mm 0.00 in0.0 mm
02:15 PM 63.4°F17.4°C 48.4°F9.1°C 58% 5.8 mph SW9.3 kmh SW 10.4 mph16.7 kmh 29.83 in1010.2 mb - 0.00 in0.0 mm 0.00 in0.0 mm
02:20 PM 63.2°F17.3°C 49.1°F9.5°C 60% 4.6 mph SW7.4 kmh SW 9.2 mph14.8 kmh 29.83 in1010.2 mb - 0.00 in0.0 mm 0.00 in0.0 mm
02:25 PM 64.0°F17.8°C 48.9°F9.4°C 58% 5.8 mph SW9.3 kmh SW 11.5 mph18.5 kmh 29.83 in1010.2 mb - 0.00 in0.0 mm 0.00 in0.0 mm
02:30 PM 63.9°F17.7°C 48.4°F9.1°C 57% 6.9 mph SW11.1 kmh SW 8.1 mph13.0 kmh 29.84 in1010.5 mb - 0.00 in0.0 mm 0.00 in0.0 mm
02:35 PM 63.7°F17.6°C 49.1°F9.5°C 59% 8.1 mph WSW13.0 kmh WSW 11.5 mph18.5 kmh 29.84 in1010.5 mb - 0.00 in0.0 mm 0.00 in0.0 mm
02:40 PM 63.9°F17.7°C 47.9°F8.8°C 56% 5.8 mph SW9.3 kmh SW 10.4 mph16.7 kmh 29.84 in1010.5 mb - 0.00 in0.0 mm 0.00 in0.0 mm
02:45 PM 63.6°F17.6°C 47.6°F8.7°C 56% 3.5 mph SW5.6 kmh SW 5.8 mph9.3 kmh 29.84 in1010.5 mb - 0.00 in0.0 mm 0.00 in0.0 mm
02:50 PM 63.3°F17.4°C 48.3°F9.1°C 58% 2.3 mph SW3.7 kmh SW 3.5 mph5.6 kmh 29.84 in1010.5 mb - 0.00 in0.0 mm 0.00 in0.0 mm
02:55 PM 63.2°F17.3°C 48.2°F9.0°C 58% 5.8 mph WSW9.3 kmh WSW 13.8 mph22.2 kmh 29.84 in1010.5 mb - 0.00 in0.0 mm 0.00 in0.0 mm
03:00 PM 63.0°F17.2°C 47.5°F8.6°C 57% 4.6 mph SW7.4 kmh SW 9.2 mph14.8 kmh 29.85 in1010.8 mb - 0.00 in0.0 mm 0.00 in0.0 mm
03:05 PM 62.9°F17.2°C 48.3°F9.1°C 59% 4.6 mph W7.4 kmh W 5.8 mph9.3 kmh 29.85 in1010.8 mb - 0.00 in0.0 mm 0.00 in0.0 mm
03:10 PM 62.9°F17.2°C 47.9°F8.8°C 58% 4.6 mph WSW7.4 kmh WSW 8.1 mph13.0 kmh 29.85 in1010.8 mb - 0.00 in0.0 mm 0.00 in0.0 mm
03:15 PM 62.9°F17.2°C 48.4°F9.1°C 59% 3.5 mph WSW5.6 kmh WSW 6.9 mph11.1 kmh 29.85 in1010.8 mb - 0.00 in0.0 mm 0.00 in0.0 mm
03:20 PM 63.0°F17.2°C 48.4°F9.1°C 59% 4.6 mph WSW7.4 kmh WSW 8.1 mph13.0 kmh 29.85 in1010.8 mb - 0.00 in0.0 mm 0.00 in0.0 mm
03:25 PM 62.8°F17.1°C 48.2°F9.0°C 59% 4.6 mph WSW7.4 kmh WSW 11.5 mph18.5 kmh 29.85 in1010.8 mb - 0.00 in0.0 mm 0.00 in0.0 mm
03:30 PM 62.6°F17.0°C 48.5°F9.2°C 60% 4.6 mph WSW7.4 kmh WSW 8.1 mph13.0 kmh 29.84 in1010.5 mb - 0.00 in0.0 mm 0.00 in0.0 mm
03:35 PM 62.6°F17.0°C 48.5°F9.2°C 60% 3.5 mph WSW5.6 kmh WSW 6.9 mph11.1 kmh 29.85 in1010.8 mb - 0.00 in0.0 mm 0.00 in0.0 mm
03:40 PM 62.6°F17.0°C 48.5°F9.2°C 60% 5.8 mph SW9.3 kmh SW 8.1 mph13.0 kmh 29.84 in1010.5 mb - 0.00 in0.0 mm 0.00 in0.0 mm
03:45 PM 62.5°F16.9°C 48.0°F8.9°C 59% 5.8 mph WSW9.3 kmh WSW 8.1 mph13.0 kmh 29.84 in1010.5 mb - 0.00 in0.0 mm 0.00 in0.0 mm
03:50 PM 62.5°F16.9°C 48.9°F9.4°C 61% 3.5 mph WSW5.6 kmh WSW 5.8 mph9.3 kmh 29.85 in1010.8 mb - 0.00 in0.0 mm 0.00 in0.0 mm
03:55 PM 62.7°F17.1°C 48.6°F9.2°C 60% 5.8 mph SW9.3 kmh SW 8.1 mph13.0 kmh 29.85 in1010.8 mb - 0.00 in0.0 mm 0.00 in0.0 mm
04:00 PM 62.7°F17.1°C 48.2°F9.0°C 59% 6.9 mph WSW11.1 kmh WSW 9.2 mph14.8 kmh 29.85 in1010.8 mb - 0.00 in0.0 mm 0.00 in0.0 mm
04:05 PM 62.5°F16.9°C 48.0°F8.9°C 59% 8.1 mph SW13.0 kmh SW 11.5 mph18.5 kmh 29.85 in1010.8 mb - 0.00 in0.0 mm 0.00 in0.0 mm
04:10 PM 62.5°F16.9°C 47.5°F8.6°C 58% 6.9 mph WSW11.1 kmh WSW 11.5 mph18.5 kmh 29.85 in1010.8 mb - 0.00 in0.0 mm 0.00 in0.0 mm
04:15 PM 62.6°F17.0°C 47.6°F8.7°C 58% 5.8 mph WSW9.3 kmh WSW 11.5 mph18.5 kmh 29.85 in1010.8 mb - 0.00 in0.0 mm 0.00 in0.0 mm
04:20 PM 62.6°F17.0°C 48.1°F8.9°C 59% 4.6 mph WSW7.4 kmh WSW 10.4 mph16.7 kmh 29.84 in1010.5 mb - 0.00 in0.0 mm 0.00 in0.0 mm
04:25 PM 62.9°F17.2°C 48.3°F9.1°C 59% 8.1 mph SW13.0 kmh SW 11.5 mph18.5 kmh 29.85 in1010.8 mb - 0.00 in0.0 mm 0.00 in0.0 mm
04:30 PM 62.9°F17.2°C 48.4°F9.1°C 59% 8.1 mph WSW13.0 kmh WSW 13.8 mph22.2 kmh 29.84 in1010.5 mb - 0.00 in0.0 mm 0.00 in0.0 mm
04:35 PM 62.7°F17.1°C 47.7°F8.7°C 58% 5.8 mph WSW9.3 kmh WSW 9.2 mph14.8 kmh 29.84 in1010.5 mb - 0.00 in0.0 mm 0.00 in0.0 mm
04:40 PM 62.4°F16.9°C 48.3°F9.1°C 60% 4.6 mph WSW7.4 kmh WSW 9.2 mph14.8 kmh 29.84 in1010.5 mb - 0.00 in0.0 mm 0.00 in0.0 mm
04:45 PM 62.3°F16.8°C 48.7°F9.3°C 61% 3.5 mph SW5.6 kmh SW 3.5 mph5.6 kmh 29.84 in1010.5 mb - 0.00 in0.0 mm 0.00 in0.0 mm
04:50 PM 62.1°F16.7°C 48.5°F9.2°C 61% 4.6 mph WSW7.4 kmh WSW 6.9 mph11.1 kmh 29.84 in1010.5 mb - 0.00 in0.0 mm 0.00 in0.0 mm
04:55 PM 62.0°F16.7°C 48.4°F9.1°C 61% 4.6 mph WSW7.4 kmh WSW 9.2 mph14.8 kmh 29.84 in1010.5 mb - 0.00 in0.0 mm 0.00 in0.0 mm
05:00 PM 62.2°F16.8°C 49.4°F9.7°C 63% 4.6 mph W7.4 kmh W 9.2 mph14.8 kmh 29.84 in1010.5 mb - 0.00 in0.0 mm 0.00 in0.0 mm
05:05 PM 62.3°F16.8°C 48.7°F9.3°C 61% 3.5 mph WSW5.6 kmh WSW 6.9 mph11.1 kmh 29.84 in1010.5 mb - 0.00 in0.0 mm 0.00 in0.0 mm
05:10 PM 62.4°F16.9°C 48.8°F9.3°C 61% 6.9 mph WSW11.1 kmh WSW 11.5 mph18.5 kmh 29.84 in1010.5 mb - 0.00 in0.0 mm 0.00 in0.0 mm
05:15 PM 62.6°F17.0°C 49.0°F9.4°C 61% 8.1 mph WSW13.0 kmh WSW 11.5 mph18.5 kmh 29.84 in1010.5 mb - 0.00 in0.0 mm 0.00 in0.0 mm
05:20 PM 62.7°F17.1°C 49.1°F9.5°C 61% 9.2 mph WSW14.8 kmh WSW 17.3 mph27.8 kmh 29.84 in1010.5 mb - 0.00 in0.0 mm 0.00 in0.0 mm
05:25 PM 62.6°F17.0°C 49.0°F9.4°C 61% 4.6 mph WSW7.4 kmh WSW 8.1 mph13.0 kmh 29.84 in1010.5 mb - 0.00 in0.0 mm 0.00 in0.0 mm
05:30 PM 62.7°F17.1°C 49.0°F9.4°C 61% 6.9 mph W11.1 kmh W 9.2 mph14.8 kmh 29.84 in1010.5 mb - 0.00 in0.0 mm 0.00 in0.0 mm
05:35 PM 62.6°F17.0°C 49.4°F9.7°C 62% 4.6 mph WSW7.4 kmh WSW 9.2 mph14.8 kmh 29.84 in1010.5 mb - 0.00 in0.0 mm 0.00 in0.0 mm
05:40 PM 62.6°F17.0°C 49.4°F9.7°C 62% 4.6 mph W7.4 kmh W 9.2 mph14.8 kmh 29.84 in1010.5 mb - 0.00 in0.0 mm 0.00 in0.0 mm
05:45 PM 62.0°F16.7°C 48.8°F9.3°C 62% 2.3 mph WSW3.7 kmh WSW 3.5 mph5.6 kmh 29.84 in1010.5 mb - 0.00 in0.0 mm 0.00 in0.0 mm
05:50 PM 61.6°F16.4°C 48.9°F9.4°C 63% 2.3 mph WSW3.7 kmh WSW 3.5 mph5.6 kmh 29.84 in1010.5 mb - 0.00 in0.0 mm 0.00 in0.0 mm
05:55 PM 61.5°F16.4°C 48.8°F9.3°C 63% 4.6 mph NW7.4 kmh NW 8.1 mph13.0 kmh 29.84 in1010.5 mb - 0.00 in0.0 mm 0.00 in0.0 mm
06:00 PM 61.3°F16.3°C 49.0°F9.4°C 64% 2.3 mph WSW3.7 kmh WSW 3.5 mph5.6 kmh 29.84 in1010.5 mb - 0.00 in0.0 mm 0.00 in0.0 mm
06:05 PM 61.1°F16.2°C 49.3°F9.6°C 65% 2.3 mph WNW3.7 kmh WNW 4.6 mph7.4 kmh 29.84 in1010.5 mb - 0.00 in0.0 mm 0.00 in0.0 mm
06:10 PM 60.8°F16.0°C 49.4°F9.7°C 66% 2.3 mph WSW3.7 kmh WSW 3.5 mph5.6 kmh 29.84 in1010.5 mb - 0.00 in0.0 mm 0.00 in0.0 mm
06:15 PM 60.6°F15.9°C 49.2°F9.6°C 66% 2.3 mph WSW3.7 kmh WSW 3.5 mph5.6 kmh 29.84 in1010.5 mb - 0.00 in0.0 mm 0.00 in0.0 mm
06:20 PM 60.6°F15.9°C 49.2°F9.6°C 66% 3.5 mph W5.6 kmh W 5.8 mph9.3 kmh 29.84 in1010.5 mb - 0.00 in0.0 mm 0.00 in0.0 mm
06:25 PM 60.7°F15.9°C 49.3°F9.6°C 66% 3.5 mph WSW5.6 kmh WSW 6.9 mph11.1 kmh 29.84 in1010.5 mb - 0.00 in0.0 mm 0.00 in0.0 mm
06:30 PM 60.8°F16.0°C 49.4°F9.7°C 66% 4.6 mph W7.4 kmh W 9.2 mph14.8 kmh 29.84 in1010.5 mb - 0.00 in0.0 mm 0.00 in0.0 mm
06:35 PM 60.8°F16.0°C 49.0°F9.4°C 65% 2.3 mph WSW3.7 kmh WSW 3.5 mph5.6 kmh 29.84 in1010.5 mb - 0.00 in0.0 mm 0.00 in0.0 mm
06:40 PM 60.7°F15.9°C 49.2°F9.6°C 66% 2.3 mph W3.7 kmh W 5.8 mph9.3 kmh 29.84 in1010.5 mb - 0.00 in0.0 mm 0.00 in0.0 mm
06:45 PM 60.3°F15.7°C 48.9°F9.4°C 66% 2.3 mph WSW3.7 kmh WSW 6.9 mph11.1 kmh 29.85 in1010.8 mb - 0.00 in0.0 mm 0.00 in0.0 mm
06:50 PM 59.9°F15.5°C 48.9°F9.4°C 67% 2.3 mph W3.7 kmh W 3.5 mph5.6 kmh 29.85 in1010.8 mb - 0.00 in0.0 mm 0.00 in0.0 mm
06:55 PM 59.6°F15.3°C 49.0°F9.4°C 68% 3.5 mph W5.6 kmh W 3.5 mph5.6 kmh 29.85 in1010.8 mb - 0.00 in0.0 mm 0.00 in0.0 mm
07:00 PM 59.4°F15.2°C 49.2°F9.6°C 69% 2.3 mph NW3.7 kmh NW 3.5 mph5.6 kmh 29.85 in1010.8 mb - 0.00 in0.0 mm 0.00 in0.0 mm
07:05 PM 59.3°F15.2°C 49.1°F9.5°C 69% 1.2 mph NW1.9 kmh NW 3.5 mph5.6 kmh 29.85 in1010.8 mb - 0.00 in0.0 mm 0.00 in0.0 mm
07:10 PM 59.3°F15.2°C 49.1°F9.5°C 69% 2.3 mph W3.7 kmh W 3.5 mph5.6 kmh 29.85 in1010.8 mb - 0.00 in0.0 mm 0.00 in0.0 mm
07:15 PM 59.3°F15.2°C 49.1°F9.5°C 69% 1.2 mph W1.9 kmh W 3.5 mph5.6 kmh 29.85 in1010.8 mb - 0.00 in0.0 mm 0.00 in0.0 mm
07:20 PM 59.3°F15.2°C 49.1°F9.5°C 69% 1.2 mph W1.9 kmh W 2.3 mph3.7 kmh 29.85 in1010.8 mb - 0.00 in0.0 mm 0.00 in0.0 mm
07:25 PM 59.1°F15.1°C 49.3°F9.6°C 70% Calm Calm -- 29.85 in1010.8 mb - 0.00 in0.0 mm 0.00 in0.0 mm
07:30 PM 58.8°F14.9°C 49.1°F9.5°C 70% Calm Calm 2.3 mph3.7 kmh 29.85 in1010.8 mb - 0.00 in0.0 mm 0.00 in0.0 mm
07:35 PM 58.4°F14.7°C 48.7°F9.3°C 70% Calm Calm 3.5 mph5.6 kmh 29.86 in1011.2 mb - 0.00 in0.0 mm 0.00 in0.0 mm
07:40 PM 58.0°F14.4°C 48.6°F9.2°C 71% Calm Calm 2.3 mph3.7 kmh 29.85 in1010.8 mb - 0.00 in0.0 mm 0.00 in0.0 mm
07:45 PM 57.5°F14.2°C 48.2°F9.0°C 71% Calm Calm -- 29.85 in1010.8 mb - 0.00 in0.0 mm 0.00 in0.0 mm
07:50 PM 57.0°F13.9°C 47.7°F8.7°C 71% 1.2 mph W1.9 kmh W 3.5 mph5.6 kmh 29.85 in1010.8 mb - 0.00 in0.0 mm 0.00 in0.0 mm
07:55 PM 56.7°F13.7°C 47.4°F8.6°C 71% 1.2 mph W1.9 kmh W 2.3 mph3.7 kmh 29.85 in1010.8 mb - 0.00 in0.0 mm 0.00 in0.0 mm
08:00 PM 56.3°F13.5°C 47.0°F8.3°C 71% Calm Calm -- 29.85 in1010.8 mb - 0.00 in0.0 mm 0.00 in0.0 mm
08:05 PM 55.9°F13.3°C 47.0°F8.3°C 72% 1.2 mph W1.9 kmh W 2.3 mph3.7 kmh 29.85 in1010.8 mb - 0.00 in0.0 mm 0.00 in0.0 mm
08:10 PM 55.5°F13.1°C 46.6°F8.1°C 72% Calm Calm 2.3 mph3.7 kmh 29.85 in1010.8 mb - 0.00 in0.0 mm 0.00 in0.0 mm
08:15 PM 55.2°F12.9°C 46.3°F7.9°C 72% 1.2 mph W1.9 kmh W 2.3 mph3.7 kmh 29.85 in1010.8 mb - 0.00 in0.0 mm 0.00 in0.0 mm
08:20 PM 54.9°F12.7°C 46.4°F8.0°C 73% 1.2 mph W1.9 kmh W 2.3 mph3.7 kmh 29.85 in1010.8 mb - 0.00 in0.0 mm 0.00 in0.0 mm
08:25 PM 54.6°F12.6°C 46.1°F7.8°C 73% 1.2 mph W1.9 kmh W 3.5 mph5.6 kmh 29.85 in1010.8 mb - 0.00 in0.0 mm 0.00 in0.0 mm
08:30 PM 54.4°F12.4°C 46.3°F7.9°C 74% 2.3 mph NNW3.7 kmh NNW 4.6 mph7.4 kmh 29.85 in1010.8 mb - 0.00 in0.0 mm 0.00 in0.0 mm
08:35 PM 54.2°F12.3°C 46.1°F7.8°C 74% 2.3 mph NNW3.7 kmh NNW 4.6 mph7.4 kmh 29.85 in1010.8 mb - 0.00 in0.0 mm 0.00 in0.0 mm
08:40 PM 54.0°F12.2°C 46.3°F7.9°C 75% 2.3 mph NNW3.7 kmh NNW 3.5 mph5.6 kmh 29.85 in1010.8 mb - 0.00 in0.0 mm 0.00 in0.0 mm
08:45 PM 53.9°F12.2°C 46.2°F7.9°C 75% Calm Calm -- 29.85 in1010.8 mb - 0.00 in0.0 mm 0.00 in0.0 mm
08:50 PM 53.8°F12.1°C 46.0°F7.8°C 75% Calm Calm -- 29.85 in1010.8 mb - 0.00 in0.0 mm 0.00 in0.0 mm
08:55 PM 53.5°F11.9°C 46.1°F7.8°C 76% Calm Calm -- 29.86 in1011.2 mb - 0.00 in0.0 mm 0.00 in0.0 mm
09:00 PM 53.1°F11.7°C 45.4°F7.4°C 75% Calm Calm -- 29.86 in1011.2 mb - 0.00 in0.0 mm 0.00 in0.0 mm
09:05 PM 52.5°F11.4°C 45.1°F7.3°C 76% Calm Calm -- 29.86 in1011.2 mb - 0.00 in0.0 mm 0.00 in0.0 mm
09:10 PM 52.0°F11.1°C 44.7°F7.1°C 76% Calm Calm 3.5 mph5.6 kmh 29.86 in1011.2 mb - 0.00 in0.0 mm 0.00 in0.0 mm
09:15 PM 51.7°F10.9°C 44.4°F6.9°C 76% 2.3 mph NNW3.7 kmh NNW 3.5 mph5.6 kmh 29.86 in1011.2 mb - 0.00 in0.0 mm 0.00 in0.0 mm
09:20 PM 51.5°F10.8°C 44.2°F6.8°C 76% 3.5 mph NNE5.6 kmh NNE 3.5 mph5.6 kmh 29.86 in1011.2 mb - 0.00 in0.0 mm 0.00 in0.0 mm
09:25 PM 51.3°F10.7°C 44.3°F6.8°C 77% 3.5 mph NNE5.6 kmh NNE 4.6 mph7.4 kmh 29.86 in1011.2 mb - 0.00 in0.0 mm 0.00 in0.0 mm
09:30 PM 51.0°F10.6°C 43.7°F6.5°C 76% 4.6 mph N7.4 kmh N 8.1 mph13.0 kmh 29.86 in1011.2 mb - 0.00 in0.0 mm 0.00 in0.0 mm
09:35 PM 50.9°F10.5°C 43.9°F6.6°C 77% 3.5 mph N5.6 kmh N 4.6 mph7.4 kmh 29.86 in1011.2 mb - 0.00 in0.0 mm 0.00 in0.0 mm
09:40 PM 50.9°F10.5°C 43.9°F6.6°C 77% 4.6 mph N7.4 kmh N 5.8 mph9.3 kmh 29.86 in1011.2 mb - 0.00 in0.0 mm 0.00 in0.0 mm
09:45 PM 51.0°F10.6°C 44.0°F6.7°C 77% 3.5 mph N5.6 kmh N 4.6 mph7.4 kmh 29.87 in1011.5 mb - 0.00 in0.0 mm 0.00 in0.0 mm
09:50 PM 51.1°F10.6°C 43.8°F6.6°C 76% 2.3 mph NNE3.7 kmh NNE 2.3 mph3.7 kmh 29.87 in1011.5 mb - 0.00 in0.0 mm 0.00 in0.0 mm
09:55 PM 51.2°F10.7°C 44.2°F6.8°C 77% 2.3 mph N3.7 kmh N 3.5 mph5.6 kmh 29.86 in1011.2 mb - 0.00 in0.0 mm 0.00 in0.0 mm
10:00 PM 51.2°F10.7°C 43.9°F6.6°C 76% 2.3 mph N3.7 kmh N 3.5 mph5.6 kmh 29.87 in1011.5 mb - 0.00 in0.0 mm 0.00 in0.0 mm
10:05 PM 51.2°F10.7°C 43.9°F6.6°C 76% 2.3 mph N3.7 kmh N 3.5 mph5.6 kmh 29.87 in1011.5 mb - 0.00 in0.0 mm 0.00 in0.0 mm
10:10 PM 51.0°F10.6°C 44.1°F6.7°C 77% 1.2 mph N1.9 kmh N 3.5 mph5.6 kmh 29.87 in1011.5 mb - 0.00 in0.0 mm 0.00 in0.0 mm
10:15 PM 50.9°F10.5°C 43.9°F6.6°C 77% 2.3 mph N3.7 kmh N 3.5 mph5.6 kmh 29.86 in1011.2 mb - 0.00 in0.0 mm 0.00 in0.0 mm
10:20 PM 50.7°F10.4°C 43.8°F6.6°C 77% 2.3 mph N3.7 kmh N 3.5 mph5.6 kmh 29.86 in1011.2 mb - 0.00 in0.0 mm 0.00 in0.0 mm
10:25 PM 50.7°F10.4°C 43.8°F6.6°C 77% 2.3 mph N3.7 kmh N 3.5 mph5.6 kmh 29.86 in1011.2 mb - 0.00 in0.0 mm 0.00 in0.0 mm
10:30 PM 50.5°F10.3°C 43.6°F6.4°C 77% 1.2 mph N1.9 kmh N 2.3 mph3.7 kmh 29.86 in1011.2 mb - 0.00 in0.0 mm 0.00 in0.0 mm
10:35 PM 50.3°F10.2°C 43.4°F6.3°C 77% Calm Calm -- 29.86 in1011.2 mb - 0.00 in0.0 mm 0.00 in0.0 mm
10:40 PM 50.1°F10.1°C 43.2°F6.2°C 77% 2.3 mph NE3.7 kmh NE 3.5 mph5.6 kmh 29.86 in1011.2 mb - 0.00 in0.0 mm 0.00 in0.0 mm
10:45 PM 50.1°F10.1°C 43.2°F6.2°C 77% 2.3 mph ENE3.7 kmh ENE 3.5 mph5.6 kmh 29.86 in1011.2 mb - 0.00 in0.0 mm 0.00 in0.0 mm
10:50 PM 50.1°F10.1°C 43.2°F6.2°C 77% 2.3 mph ENE3.7 kmh ENE 2.3 mph3.7 kmh 29.87 in1011.5 mb - 0.00 in0.0 mm 0.00 in0.0 mm
10:55 PM 50.1°F10.1°C 43.2°F6.2°C 77% 2.3 mph ENE3.7 kmh ENE 3.5 mph5.6 kmh 29.87 in1011.5 mb - 0.00 in0.0 mm 0.00 in0.0 mm
11:00 PM 50.1°F10.1°C 43.2°F6.2°C 77% 2.3 mph NE3.7 kmh NE 3.5 mph5.6 kmh 29.87 in1011.5 mb - 0.00 in0.0 mm 0.00 in0.0 mm
11:05 PM 50.3°F10.2°C 43.4°F6.3°C 77% 2.3 mph NE3.7 kmh NE 3.5 mph5.6 kmh 29.87 in1011.5 mb - 0.00 in0.0 mm 0.00 in0.0 mm
11:10 PM 50.6°F10.3°C 43.6°F6.4°C 77% 3.5 mph E5.6 kmh E 4.6 mph7.4 kmh 29.86 in1011.2 mb - 0.00 in0.0 mm 0.00 in0.0 mm
11:15 PM 50.8°F10.4°C 43.8°F6.6°C 77% 1.2 mph E1.9 kmh E 2.3 mph3.7 kmh 29.86 in1011.2 mb - 0.00 in0.0 mm 0.00 in0.0 mm
11:20 PM 50.7°F10.4°C 43.8°F6.6°C 77% 1.2 mph E1.9 kmh E 3.5 mph5.6 kmh 29.86 in1011.2 mb - 0.00 in0.0 mm 0.00 in0.0 mm
11:25 PM 50.4°F10.2°C 43.4°F6.3°C 77% 2.3 mph E3.7 kmh E 3.5 mph5.6 kmh 29.86 in1011.2 mb - 0.00 in0.0 mm 0.00 in0.0 mm
11:30 PM 50.0°F10.0°C 43.1°F6.2°C 77% 2.3 mph E3.7 kmh E 3.5 mph5.6 kmh 29.86 in1011.2 mb - 0.00 in0.0 mm 0.00 in0.0 mm
11:35 PM 49.7°F9.8°C 42.8°F6.0°C 77% 2.3 mph N3.7 kmh N 3.5 mph5.6 kmh 29.86 in1011.2 mb - 0.00 in0.0 mm 0.00 in0.0 mm
11:40 PM 49.4°F9.7°C 42.5°F5.8°C 77% 3.5 mph NNE5.6 kmh NNE 3.5 mph5.6 kmh 29.86 in1011.2 mb - 0.00 in0.0 mm 0.00 in0.0 mm
11:45 PM 49.2°F9.6°C 42.3°F5.7°C 77% 2.3 mph NNE3.7 kmh NNE 3.5 mph5.6 kmh 29.86 in1011.2 mb - 0.00 in0.0 mm 0.00 in0.0 mm
11:50 PM 49.2°F9.6°C 42.3°F5.7°C 77% 2.3 mph NNE3.7 kmh NNE 3.5 mph5.6 kmh 29.86 in1011.2 mb - 0.00 in0.0 mm 0.00 in0.0 mm
11:55 PM 49.4°F9.7°C 42.5°F5.8°C 77% 1.2 mph NNE1.9 kmh NNE 2.3 mph3.7 kmh 29.86 in1011.2 mb - 0.00 in0.0 mm 0.00 in0.0 mm